Time;durP1;ratioP1;P1;durP2;ratioP2;P2;SDS_P1;SDS_P2;PMS_P1;PMS_P2;Temp;Humidity;BMP_temperature;BMP_pressure;BME280_temperature;BME280_humidity;BME280_pressure;Samples;Min_cycle;Max_cycle;Signal;HPM_P1;HPM_P2
2021/08/25 00:00:59;;;;;;;4.30;3.37;;;15.20;99.90;;;;;;5045934;28;20312;-62
2021/08/25 00:03:27;;;;;;;5.07;3.60;;;15.30;99.90;;;;;;5044733;28;20262;-62
2021/08/25 00:05:56;;;;;;;4.07;3.67;;;15.10;99.90;;;;;;5048210;28;20240;-62
2021/08/25 00:08:24;;;;;;;4.37;3.90;;;15.20;99.90;;;;;;5043645;28;20235;-62
2021/08/25 00:10:52;;;;;;;5.77;3.90;;;15.20;99.90;;;;;;5043848;28;20235;-62
2021/08/25 00:13:20;;;;;;;6.53;4.10;;;15.20;99.90;;;;;;5041066;28;20227;-62
2021/08/25 00:15:49;;;;;;;5.27;3.97;;;15.20;99.90;;;;;;5043918;28;20274;-62
2021/08/25 00:18:18;;;;;;;4.27;3.87;;;15.20;99.90;;;;;;5036795;28;20322;-62
2021/08/25 00:20:46;;;;;;;6.30;3.77;;;15.10;99.90;;;;;;5047873;28;20250;-62
2021/08/25 00:23:14;;;;;;;4.30;3.90;;;15.00;99.90;;;;;;5039589;28;20282;-62
2021/08/25 00:25:42;;;;;;;4.37;3.93;;;15.00;99.90;;;;;;5050690;28;20687;-62
2021/08/25 00:28:10;;;;;;;4.37;3.80;;;15.00;99.90;;;;;;5042380;28;20264;-62
2021/08/25 00:30:38;;;;;;;6.20;3.93;;;14.90;99.90;;;;;;5048660;28;20580;-62
2021/08/25 00:33:07;;;;;;;4.23;3.53;;;15.00;99.90;;;;;;5043645;28;20592;-62
2021/08/25 00:35:36;;;;;;;4.27;3.87;;;14.90;99.90;;;;;;5046911;28;20233;-62
2021/08/25 00:38:05;;;;;;;4.63;3.90;;;14.90;99.90;;;;;;5046772;28;20232;-62
2021/08/25 00:40:33;;;;;;;4.73;3.50;;;14.80;99.90;;;;;;5046392;28;20593;-62
2021/08/25 00:43:05;;;;;;;5.33;4.30;;;14.80;99.90;;;;;;5047678;28;20252;-62
2021/08/25 00:45:35;;;;;;;4.20;3.90;;;14.90;99.90;;;;;;5041891;28;20318;-62
2021/08/25 00:48:03;;;;;;;4.90;4.20;;;14.80;99.90;;;;;;5026132;28;20247;-62
2021/08/25 00:50:32;;;;;;;6.13;4.60;;;14.90;99.90;;;;;;5028800;28;20310;-62
2021/08/25 00:53:03;;;;;;;6.47;4.27;;;14.90;99.90;;;;;;5019723;28;20237;-62
2021/08/25 00:55:32;;;;;;;6.77;4.17;;;14.90;99.90;;;;;;5026651;28;20263;-62
2021/08/25 00:58:01;;;;;;;6.43;4.53;;;14.90;99.90;;;;;;5027332;28;20732;-62
2021/08/25 01:00:49;;;;;;;5.34;4.86;;;15.00;99.90;;;;;;3175879;28;10001710;-62
2021/08/25 01:03:20;;;;;;;5.70;4.80;;;15.10;99.90;;;;;;3641487;28;10001825;-62
2021/08/25 01:05:50;;;;;;;5.40;4.90;;;14.90;99.90;;;;;;5025122;28;20476;-62
2021/08/25 01:08:19;;;;;;;5.17;4.67;;;14.80;99.90;;;;;;5012122;28;20268;-62
2021/08/25 01:10:47;;;;;;;5.77;5.13;;;14.80;99.90;;;;;;5024762;28;20684;-62
2021/08/25 01:13:16;;;;;;;6.20;4.70;;;14.90;99.90;;;;;;5023737;28;20244;-62
2021/08/25 01:15:44;;;;;;;5.33;4.83;;;15.00;99.90;;;;;;5023579;28;20574;-62
2021/08/25 01:18:15;;;;;;;6.60;5.20;;;15.00;99.90;;;;;;5027919;28;20319;-62
2021/08/25 01:20:46;;;;;;;6.17;4.80;;;14.90;99.90;;;;;;5024480;28;20232;-62
2021/08/25 01:23:15;;;;;;;6.97;4.57;;;14.80;99.90;;;;;;5022792;28;20237;-62
2021/08/25 01:25:45;;;;;;;7.70;4.87;;;14.80;99.90;;;;;;5016515;28;20713;-62
2021/08/25 01:28:19;;;;;;;7.73;5.03;;;14.80;99.90;;;;;;5022094;28;20319;-62
2021/08/25 01:30:50;;;;;;;5.53;5.03;;;14.80;99.90;;;;;;5022381;28;20241;-62
2021/08/25 01:33:19;;;;;;;6.70;5.00;;;14.70;99.90;;;;;;5015957;28;20330;-62
2021/08/25 01:35:47;;;;;;;5.23;4.73;;;14.60;99.90;;;;;;5024105;28;20328;-62
2021/08/25 01:38:24;;;;;;;7.43;5.23;;;14.70;99.90;;;;;;5021658;28;20229;-62
2021/08/25 01:40:53;;;;;;;5.83;4.87;;;14.70;99.90;;;;;;5026872;28;20311;-62
2021/08/25 01:43:21;;;;;;;5.63;5.00;;;14.80;99.90;;;;;;5025323;28;20244;-62
2021/08/25 01:45:50;;;;;;;6.97;5.50;;;14.80;99.90;;;;;;5024266;28;20586;-62
2021/08/25 01:48:19;;;;;;;6.10;5.13;;;14.70;99.90;;;;;;5019414;28;20236;-62
2021/08/25 01:50:47;;;;;;;6.90;5.30;;;14.70;99.90;;;;;;5026675;28;20565;-62
2021/08/25 01:53:15;;;;;;;6.30;5.23;;;14.60;99.90;;;;;;5024954;28;20577;-62
2021/08/25 01:55:44;;;;;;;6.30;5.60;;;14.60;99.90;;;;;;5022127;28;20232;-62
2021/08/25 01:58:12;;;;;;;5.80;5.00;;;14.60;99.90;;;;;;5020308;28;20577;-62
2021/08/25 02:00:40;;;;;;;7.10;5.50;;;14.70;99.90;;;;;;5025766;28;20231;-62
2021/08/25 02:03:10;;;;;;;6.80;6.10;;;14.70;99.90;;;;;;5019734;28;20248;-62
2021/08/25 02:05:38;;;;;;;5.50;5.00;;;14.70;99.90;;;;;;5026346;28;20267;-62
2021/08/25 02:08:06;;;;;;;6.70;6.00;;;14.70;99.90;;;;;;5019962;28;20295;-62
2021/08/25 02:10:35;;;;;;;5.73;5.23;;;14.50;99.90;;;;;;5027791;28;20236;-62
2021/08/25 02:13:03;;;;;;;6.40;5.80;;;14.50;99.90;;;;;;5023917;28;20282;-62
2021/08/25 02:15:31;;;;;;;9.80;7.17;;;14.60;99.90;;;;;;5020151;28;20275;-62
2021/08/25 02:17:59;;;;;;;7.37;6.60;;;14.60;99.90;;;;;;5019570;28;20322;-62
2021/08/25 02:20:29;;;;;;;7.93;7.07;;;14.60;99.90;;;;;;5017559;28;20237;-62
2021/08/25 02:22:57;;;;;;;7.00;6.30;;;14.50;99.90;;;;;;5017830;28;20316;-62
2021/08/25 02:25:25;;;;;;;7.80;7.00;;;14.40;99.90;;;;;;5025562;28;20236;-62
2021/08/25 02:27:53;;;;;;;7.83;7.03;;;14.40;99.90;;;;;;5015198;28;20335;-62
2021/08/25 02:30:21;;;;;;;7.10;6.50;;;14.50;99.90;;;;;;5021815;28;20232;-62
2021/08/25 02:32:49;;;;;;;7.03;6.20;;;14.40;99.90;;;;;;5022071;28;20347;-62
2021/08/25 02:35:17;;;;;;;7.40;6.20;;;14.40;99.90;;;;;;5017768;28;20268;-62
2021/08/25 02:37:47;;;;;;;7.63;6.70;;;14.30;99.90;;;;;;5021882;28;20248;-62
2021/08/25 02:40:15;;;;;;;7.80;7.10;;;14.30;99.90;;;;;;5023632;28;20319;-62
2021/08/25 02:42:43;;;;;;;8.13;7.33;;;14.20;99.90;;;;;;5016914;28;20285;-61
2021/08/25 02:45:12;;;;;;;8.37;7.50;;;14.40;99.90;;;;;;5022319;28;20331;-62
2021/08/25 02:47:40;;;;;;;9.83;7.60;;;14.40;99.90;;;;;;5020465;28;20236;-62
2021/08/25 02:50:09;;;;;;;7.23;6.53;;;14.40;99.90;;;;;;5026972;28;20244;-62
2021/08/25 02:52:38;;;;;;;8.80;7.37;;;14.40;99.90;;;;;;5024003;28;20248;-62
2021/08/25 02:55:08;;;;;;;7.60;6.87;;;14.30;99.90;;;;;;5019054;28;20268;-62
2021/08/25 02:57:36;;;;;;;6.83;6.10;;;14.40;99.90;;;;;;5020881;28;20229;-62
2021/08/25 03:00:06;;;;;;;8.63;7.00;;;14.40;99.90;;;;;;5025059;28;20252;-62
2021/08/25 03:02:34;;;;;;;10.03;7.27;;;14.40;99.90;;;;;;5022247;28;20237;-62
2021/08/25 03:05:02;;;;;;;7.60;6.80;;;14.40;99.90;;;;;;5024997;28;20236;-62
2021/08/25 03:07:32;;;;;;;7.03;5.97;;;14.40;99.90;;;;;;5021214;28;20315;-62
2021/08/25 03:10:00;;;;;;;9.50;7.43;;;14.30;99.90;;;;;;5021912;28;20747;-62
2021/08/25 03:12:29;;;;;;;6.83;6.17;;;14.30;99.90;;;;;;5020616;28;20340;-62
2021/08/25 03:14:58;;;;;;;7.23;6.53;;;14.40;99.90;;;;;;5024892;28;20241;-61
2021/08/25 03:17:26;;;;;;;7.07;6.37;;;14.30;99.90;;;;;;5015595;28;20638;-62
2021/08/25 03:19:54;;;;;;;7.53;6.40;;;14.40;99.90;;;;;;5022589;28;20243;-62
2021/08/25 03:22:22;;;;;;;6.27;5.57;;;14.40;99.90;;;;;;5017889;28;20244;-62
2021/08/25 03:24:50;;;;;;;6.37;5.30;;;14.40;99.90;;;;;;5019081;28;20327;-62
2021/08/25 03:27:18;;;;;;;7.57;5.17;;;14.20;99.90;;;;;;5012230;28;20241;-62
2021/08/25 03:29:48;;;;;;;6.73;5.57;;;14.20;99.90;;;;;;5019965;28;20268;-62
2021/08/25 03:32:16;;;;;;;5.97;5.20;;;14.20;99.90;;;;;;5025449;28;20237;-62
2021/08/25 03:34:44;;;;;;;5.20;4.53;;;14.20;99.90;;;;;;5020918;28;20264;-62
2021/08/25 03:37:12;;;;;;;5.97;5.10;;;14.30;99.90;;;;;;5022857;28;20224;-62
2021/08/25 03:39:41;;;;;;;5.67;5.17;;;14.20;99.90;;;;;;5020928;28;20778;-62
2021/08/25 03:42:09;;;;;;;7.33;5.83;;;14.20;99.90;;;;;;5018608;28;20240;-62
2021/08/25 03:44:37;;;;;;;6.20;5.60;;;14.20;99.90;;;;;;5020524;28;20291;-62
2021/08/25 03:47:08;;;;;;;6.63;5.77;;;14.20;99.90;;;;;;5020916;28;20240;-62
2021/08/25 03:49:36;;;;;;;6.40;5.80;;;14.10;99.90;;;;;;5021568;28;20320;-62
2021/08/25 03:52:07;;;;;;;5.93;5.43;;;14.10;99.90;;;;;;5025170;28;20612;-62
2021/08/25 03:54:35;;;;;;;5.93;5.33;;;14.00;99.90;;;;;;5020135;28;20232;-62
2021/08/25 03:57:03;;;;;;;6.00;5.37;;;14.10;99.90;;;;;;5026883;28;20263;-62
2021/08/25 03:59:31;;;;;;;6.30;5.70;;;14.10;99.90;;;;;;5025061;28;20271;-62
2021/08/25 04:01:59;;;;;;;7.73;7.03;;;14.20;99.90;;;;;;5015330;28;20788;-62
2021/08/25 04:04:29;;;;;;;9.13;6.77;;;14.20;99.90;;;;;;5021576;28;20327;-62
2021/08/25 04:06:57;;;;;;;6.90;6.30;;;14.30;99.90;;;;;;5020918;28;20323;-62
2021/08/25 04:09:25;;;;;;;7.60;6.90;;;14.30;99.90;;;;;;5021773;28;20239;-61
2021/08/25 04:11:54;;;;;;;7.37;6.60;;;14.20;99.90;;;;;;5021464;28;20328;-62
2021/08/25 04:14:22;;;;;;;7.60;6.80;;;14.10;99.90;;;;;;5022277;28;20608;-62
2021/08/25 04:16:50;;;;;;;7.37;6.77;;;14.20;99.90;;;;;;5023229;28;20232;-62
2021/08/25 04:19:18;;;;;;;7.40;6.80;;;14.10;99.90;;;;;;5023021;28;20606;-62
2021/08/25 04:21:47;;;;;;;6.87;6.27;;;14.10;99.90;;;;;;5022644;28;20240;-62
2021/08/25 04:24:15;;;;;;;6.83;6.23;;;14.20;99.90;;;;;;5023734;28;20243;-62
2021/08/25 04:26:44;;;;;;;7.07;6.47;;;14.20;99.90;;;;;;5024453;28;20273;-62
2021/08/25 04:29:12;;;;;;;7.10;6.50;;;14.20;99.90;;;;;;5023483;28;20913;-62
2021/08/25 04:31:40;;;;;;;7.57;6.87;;;14.40;99.90;;;;;;5023805;28;20287;-62
2021/08/25 04:34:08;;;;;;;6.67;6.07;;;14.30;99.90;;;;;;5023490;28;20240;-62
2021/08/25 04:36:37;;;;;;;7.60;6.80;;;14.30;99.90;;;;;;5019389;28;20271;-62
2021/08/25 04:39:06;;;;;;;6.93;6.23;;;14.30;99.90;;;;;;5021990;28;20593;-62
2021/08/25 04:41:34;;;;;;;7.73;7.03;;;14.30;99.90;;;;;;5021118;28;20304;-62
2021/08/25 04:44:02;;;;;;;8.17;7.47;;;14.50;99.90;;;;;;5027844;28;20232;-62
2021/08/25 04:46:31;;;;;;;7.73;7.03;;;14.40;99.90;;;;;;5027684;28;20236;-62
2021/08/25 04:49:00;;;;;;;9.00;8.00;;;14.40;99.90;;;;;;5026515;28;20241;-62
2021/08/25 04:51:28;;;;;;;8.17;7.37;;;14.50;99.90;;;;;;5029946;28;20331;-62
2021/08/25 04:53:56;;;;;;;10.00;8.93;;;14.50;99.90;;;;;;5029106;28;20232;-62
2021/08/25 04:56:25;;;;;;;7.60;6.90;;;14.50;99.90;;;;;;5024917;28;20644;-62
2021/08/25 04:58:53;;;;;;;7.60;6.90;;;14.50;99.90;;;;;;5021868;28;20243;-62
2021/08/25 05:01:21;;;;;;;9.43;8.03;;;14.40;99.90;;;;;;5027216;28;20665;-62
2021/08/25 05:03:50;;;;;;;7.97;7.17;;;14.50;99.90;;;;;;5024645;28;20236;-62
2021/08/25 05:06:18;;;;;;;10.93;7.80;;;14.60;99.90;;;;;;5019164;28;20260;-62
2021/08/25 05:08:46;;;;;;;8.03;7.20;;;14.80;99.90;;;;;;5023285;28;20546;-63
2021/08/25 05:11:15;;;;;;;7.87;7.07;;;14.80;99.90;;;;;;5024088;28;20260;-62
2021/08/25 05:13:44;;;;;;;10.87;8.07;;;14.80;99.90;;;;;;5020231;28;20240;-62
2021/08/25 05:16:13;;;;;;;7.83;7.10;;;14.80;99.90;;;;;;5028303;28;20780;-63
2021/08/25 05:18:42;;;;;;;10.13;7.47;;;14.80;99.90;;;;;;5023965;28;20271;-63
2021/08/25 05:21:11;;;;;;;8.80;7.90;;;14.80;99.90;;;;;;5025134;28;20236;-63
2021/08/25 05:23:39;;;;;;;10.63;8.33;;;14.80;99.90;;;;;;5019666;28;20322;-63
2021/08/25 05:26:07;;;;;;;8.50;7.60;;;14.80;99.90;;;;;;5027240;28;20809;-63
2021/08/25 05:28:36;;;;;;;9.50;8.00;;;14.70;99.90;;;;;;5015415;28;20579;-63
2021/08/25 05:31:05;;;;;;;7.60;6.90;;;14.80;99.90;;;;;;5009411;28;20268;-63
2021/08/25 05:33:33;;;;;;;8.20;7.33;;;14.70;99.90;;;;;;5008692;28;20601;-63
2021/08/25 05:36:02;;;;;;;8.70;6.63;;;14.80;99.90;;;;;;5008554;28;20233;-62
2021/08/25 05:38:31;;;;;;;10.67;7.43;;;14.90;99.90;;;;;;5008017;28;20552;-62
2021/08/25 05:40:59;;;;;;;8.43;7.53;;;14.90;99.90;;;;;;5010871;28;20480;-62
2021/08/25 05:43:28;;;;;;;11.43;8.13;;;15.10;99.90;;;;;;5009792;28;20225;-62
2021/08/25 05:45:56;;;;;;;8.07;7.20;;;15.10;99.90;;;;;;5008330;28;20284;-63
2021/08/25 05:48:26;;;;;;;7.63;6.83;;;15.20;99.90;;;;;;5009630;28;20237;-62
2021/08/25 05:50:54;;;;;;;6.90;6.20;;;15.30;99.90;;;;;;5011534;28;20265;-62
2021/08/25 05:53:22;;;;;;;9.10;7.03;;;15.20;99.90;;;;;;5009423;28;20247;-62
2021/08/25 05:55:50;;;;;;;7.13;6.50;;;15.50;99.90;;;;;;5007873;28;20317;-63
2021/08/25 05:58:18;;;;;;;7.07;6.30;;;15.50;99.90;;;;;;5008953;28;20624;-63
2021/08/25 06:00:47;;;;;;;6.57;6.00;;;15.50;99.90;;;;;;5006721;28;20240;-63
2021/08/25 06:03:15;;;;;;;7.17;6.33;;;15.50;99.90;;;;;;5007434;28;20232;-63
2021/08/25 06:05:44;;;;;;;7.07;6.40;;;15.50;99.90;;;;;;5004994;28;20306;-63
2021/08/25 06:08:13;;;;;;;6.60;5.90;;;15.40;99.90;;;;;;5007527;28;20284;-63
2021/08/25 06:10:41;;;;;;;6.47;5.87;;;15.40;99.90;;;;;;5008655;28;20243;-62
2021/08/25 06:13:09;;;;;;;9.83;7.07;;;15.40;99.90;;;;;;5005543;28;20661;-62
2021/08/25 06:15:37;;;;;;;7.30;6.60;;;15.40;99.90;;;;;;5005205;28;20237;-63
2021/08/25 06:18:06;;;;;;;6.90;6.20;;;15.50;99.90;;;;;;5009319;28;20335;-62
2021/08/25 06:20:34;;;;;;;6.90;6.30;;;15.70;99.90;;;;;;5011123;28;20437;-63
2021/08/25 06:23:06;;;;;;;6.63;6.00;;;16.00;99.90;;;;;;5007649;28;20725;-63
2021/08/25 06:25:34;;;;;;;7.70;6.90;;;16.20;99.90;;;;;;5006172;28;20299;-62
2021/08/25 06:28:02;;;;;;;7.40;6.57;;;16.40;99.90;;;;;;5008520;28;20240;-62
2021/08/25 06:30:30;;;;;;;7.27;6.47;;;16.60;99.90;;;;;;5007478;28;20299;-63
2021/08/25 06:32:59;;;;;;;6.37;5.53;;;16.80;99.90;;;;;;5010690;28;20614;-63
2021/08/25 06:35:30;;;;;;;7.00;6.30;;;17.00;99.90;;;;;;5009230;28;20299;-62
2021/08/25 06:37:58;;;;;;;6.03;5.43;;;17.10;99.90;;;;;;5007606;28;20769;-63
2021/08/25 06:40:27;;;;;;;7.17;5.40;;;17.30;99.90;;;;;;5008589;28;20241;-63
2021/08/25 06:42:56;;;;;;;6.90;5.83;;;17.40;99.90;;;;;;5005588;28;20319;-63
2021/08/25 06:45:24;;;;;;;6.97;5.33;;;17.60;99.90;;;;;;5006433;28;20265;-63
2021/08/25 06:47:52;;;;;;;8.83;6.07;;;17.70;99.90;;;;;;5009212;28;20655;-63
2021/08/25 06:50:20;;;;;;;5.40;4.70;;;17.90;99.90;;;;;;5010016;28;20362;-64
2021/08/25 06:52:48;;;;;;;5.87;4.43;;;18.00;99.90;;;;;;5009177;28;20530;-63
2021/08/25 06:55:17;;;;;;;6.03;4.30;;;18.40;99.90;;;;;;5006932;28;20328;-63
2021/08/25 06:57:49;;;;;;;6.10;4.87;;;18.70;99.90;;;;;;5008530;28;20521;-63
2021/08/25 07:00:18;;;;;;;5.63;4.80;;;18.80;99.90;;;;;;5008954;28;20373;-63
2021/08/25 07:02:46;;;;;;;7.23;4.50;;;18.90;99.90;;;;;;5008112;28;20275;-63
2021/08/25 07:05:15;;;;;;;5.00;4.50;;;19.10;99.90;;;;;;5009440;28;20234;-64
2021/08/25 07:07:43;;;;;;;6.53;5.00;;;19.20;99.90;;;;;;5011281;28;20234;-63
2021/08/25 07:10:12;;;;;;;5.97;3.90;;;19.30;99.90;;;;;;5024857;28;20352;-63
2021/08/25 07:12:40;;;;;;;7.53;4.40;;;19.50;99.90;;;;;;5023740;28;20242;-63
2021/08/25 07:15:15;;;;;;;4.53;3.60;;;19.70;99.90;;;;;;5015797;28;20246;-63
2021/08/25 07:17:44;;;;;;;6.60;3.63;;;19.90;99.90;;;;;;5026104;28;20257;-64
2021/08/25 07:20:14;;;;;;;5.87;3.63;;;20.10;99.90;;;;;;5023882;28;20766;-63
2021/08/25 07:22:43;;;;;;;4.90;3.20;;;20.20;99.90;;;;;;5014134;28;20323;-63
2021/08/25 07:25:12;;;;;;;3.87;3.30;;;20.40;99.90;;;;;;5022389;28;20566;-64
2021/08/25 07:27:40;;;;;;;5.47;3.30;;;20.60;99.90;;;;;;5022325;28;20238;-64
2021/08/25 07:30:13;;;;;;;4.70;3.60;;;20.70;99.90;;;;;;5022935;28;20230;-63
2021/08/25 07:32:41;;;;;;;5.20;3.57;;;20.80;99.90;;;;;;5023504;28;20243;-64
2021/08/25 07:35:11;;;;;;;5.33;3.67;;;20.90;99.90;;;;;;5025002;28;20243;-64
2021/08/25 07:37:40;;;;;;;4.47;3.20;;;21.10;99.90;;;;;;5022275;28;20630;-63
2021/08/25 07:40:09;;;;;;;5.73;3.67;;;21.20;99.90;;;;;;5024935;28;20236;-63
2021/08/25 07:42:44;;;;;;;5.07;3.67;;;21.30;99.90;;;;;;5021184;28;20737;-63
2021/08/25 07:45:14;;;;;;;6.90;3.67;;;21.40;99.90;;;;;;5023463;28;20228;-63
2021/08/25 07:47:44;;;;;;;5.27;3.60;;;21.50;99.90;;;;;;5023602;28;20243;-63
2021/08/25 07:50:12;;;;;;;4.87;2.90;;;21.50;99.90;;;;;;5021815;28;20471;-64
2021/08/25 07:52:40;;;;;;;3.13;2.50;;;21.40;99.90;;;;;;5021373;28;20255;-63
2021/08/25 07:55:09;;;;;;;4.80;2.50;;;21.10;99.90;;;;;;5022411;28;20242;-63
2021/08/25 07:57:38;;;;;;;5.43;2.33;;;20.90;99.90;;;;;;5023659;28;20250;-63
2021/08/25 08:00:07;;;;;;;2.97;2.00;;;20.80;99.90;;;;;;5024277;28;20244;-63
2021/08/25 08:02:38;;;;;;;2.93;1.80;;;21.00;99.90;;;;;;5021951;28;20334;-63
2021/08/25 08:05:07;;;;;;;3.10;1.93;;;20.90;99.90;;;;;;5025451;28;20719;-63
2021/08/25 08:07:35;;;;;;;3.20;1.53;;;21.00;99.90;;;;;;5024862;28;20248;-63
2021/08/25 08:10:04;;;;;;;2.50;1.77;;;20.90;99.90;;;;;;5021317;28;20236;-63
2021/08/25 08:12:33;;;;;;;3.07;1.70;;;20.70;99.90;;;;;;5018062;28;20240;-63
2021/08/25 08:15:01;;;;;;;3.70;1.70;;;20.40;99.90;;;;;;5021550;28;20248;-63
2021/08/25 08:17:30;;;;;;;4.83;1.50;;;20.40;99.90;;;;;;5025534;28;20240;-63
2021/08/25 08:20:00;;;;;;;2.30;1.47;;;20.20;99.90;;;;;;5023148;28;20236;-63
2021/08/25 08:22:28;;;;;;;1.93;1.60;;;20.10;99.90;;;;;;5027169;28;20726;-63
2021/08/25 08:24:56;;;;;;;2.17;1.33;;;20.30;99.90;;;;;;5023640;28;20233;-63
2021/08/25 08:27:25;;;;;;;3.47;1.70;;;20.50;99.90;;;;;;5023037;28;20239;-63
2021/08/25 08:29:53;;;;;;;4.47;1.80;;;20.80;99.90;;;;;;5025356;28;20232;-63
2021/08/25 08:32:21;;;;;;;1.80;1.23;;;21.10;99.90;;;;;;5021860;28;20796;-63
2021/08/25 08:34:49;;;;;;;3.40;1.30;;;21.10;99.90;;;;;;5025417;28;20324;-63
2021/08/25 08:37:19;;;;;;;3.53;1.37;;;21.00;99.90;;;;;;5026483;28;20224;-63
2021/08/25 08:39:47;;;;;;;2.27;1.30;;;20.90;99.90;;;;;;5027217;28;20329;-63
2021/08/25 08:42:29;;;;;;;2.63;1.30;;;20.60;99.90;;;;;;5027232;28;20225;-63
2021/08/25 08:44:58;;;;;;;2.97;1.10;;;20.40;99.90;;;;;;5027774;28;20267;-63
2021/08/25 08:47:30;;;;;;;2.20;1.00;;;20.40;99.90;;;;;;5028806;28;20716;-64
2021/08/25 08:50:00;;;;;;;1.73;0.90;;;20.30;99.90;;;;;;5026616;28;20318;-64
2021/08/25 08:52:30;;;;;;;2.33;0.90;;;20.10;99.90;;;;;;5022746;28;20237;-64
2021/08/25 08:54:58;;;;;;;2.80;1.00;;;20.00;99.90;;;;;;5028681;28;20286;-64
2021/08/25 08:57:26;;;;;;;2.70;0.90;;;20.00;99.90;;;;;;5026679;28;20240;-64
2021/08/25 08:59:54;;;;;;;1.63;0.70;;;20.10;99.90;;;;;;5028286;28;20336;-64
2021/08/25 09:02:40;;;;;;;0.77;0.57;;;20.60;99.90;;;;;;5023836;28;20774;-64
2021/08/25 09:05:20;;;;;;;1.13;0.67;;;20.70;99.90;;;;;;5027382;28;20277;-64
2021/08/25 09:07:56;;;;;;;1.67;0.87;;;20.50;99.90;;;;;;5026400;28;20302;-64
2021/08/25 09:10:33;;;;;;;1.83;0.80;;;20.30;99.90;;;;;;5026584;28;20262;-64
2021/08/25 09:13:03;;;;;;;1.53;0.70;;;20.30;99.90;;;;;;5026010;28;20710;-64
2021/08/25 09:15:34;;;;;;;1.30;0.70;;;20.30;99.90;;;;;;5025764;28;20232;-64
2021/08/25 09:18:05;;;;;;;2.57;0.63;;;20.10;99.90;;;;;;5023519;28;20255;-64
2021/08/25 09:20:35;;;;;;;0.83;0.63;;;20.10;99.90;;;;;;5026488;28;20749;-64
2021/08/25 09:23:12;;;;;;;3.67;0.60;;;20.40;99.90;;;;;;5019753;28;20705;-63
2021/08/25 09:25:41;;;;;;;1.60;0.60;;;20.70;99.90;;;;;;5028628;28;20255;-64
2021/08/25 09:28:11;;;;;;;2.17;0.70;;;20.90;99.90;;;;;;5019923;28;20237;-63
2021/08/25 09:30:57;;;;;;;0.90;0.60;;;20.90;99.90;;;;;;5025905;28;20418;-64
2021/08/25 09:33:30;;;;;;;1.43;0.57;;;21.30;99.90;;;;;;5019854;28;20244;-64
2021/08/25 09:36:01;;;;;;;1.90;0.80;;;21.50;99.90;;;;;;5029654;28;20237;-64
2021/08/25 09:38:32;;;;;;;2.07;0.60;;;21.70;99.90;;;;;;5023233;28;20315;-63
2021/08/25 09:41:05;;;;;;;1.93;0.70;;;22.50;99.90;;;;;;5028205;28;20240;-64
2021/08/25 09:43:39;;;;;;;3.07;0.80;;;23.00;99.90;;;;;;5025577;28;20640;-64
2021/08/25 09:46:09;;;;;;;1.87;0.77;;;22.80;99.90;;;;;;5025224;28;20338;-64
2021/08/25 09:48:40;;;;;;;1.20;0.70;;;22.00;99.90;;;;;;5022048;28;20232;-64
2021/08/25 09:51:09;;;;;;;2.03;0.80;;;21.40;99.90;;;;;;5026767;28;20236;-64
2021/08/25 09:53:40;;;;;;;2.63;0.80;;;20.90;99.90;;;;;;5026187;28;20715;-62
2021/08/25 09:56:30;;;;;;;2.07;1.10;;;20.90;99.90;;;;;;5026269;28;20801;-63
2021/08/25 09:58:59;;;;;;;2.07;0.83;;;20.80;99.90;;;;;;5026644;28;20307;-63
2021/08/25 10:01:28;;;;;;;2.63;1.10;;;21.00;99.90;;;;;;5020953;28;20271;-64
2021/08/25 10:04:03;;;;;;;2.23;0.87;;;21.30;99.90;;;;;;5022471;28;20715;-64
2021/08/25 10:06:32;;;;;;;1.90;0.90;;;21.10;99.90;;;;;;5026908;28;20648;-63
2021/08/25 10:09:02;;;;;;;2.57;0.93;;;21.50;99.90;;;;;;5024223;28;20696;-64
2021/08/25 10:11:32;;;;;;;3.13;0.90;;;21.40;99.90;;;;;;5021315;28;20286;-64
2021/08/25 10:14:06;;;;;;;3.70;1.03;;;21.60;99.90;;;;;;5018243;28;20235;-64
2021/08/25 10:16:43;;;;;;;1.93;0.70;;;21.90;99.90;;;;;;5012786;28;20649;-64
2021/08/25 10:19:28;;;;;;;2.20;0.70;;;22.00;99.90;;;;;;5020962;28;20236;-64
2021/08/25 10:21:59;;;;;;;2.57;1.20;;;21.60;99.90;;;;;;5027430;28;20325;-64
2021/08/25 10:24:49;;;;;;;3.67;1.00;;;21.30;99.90;;;;;;5023930;28;20240;-64
2021/08/25 10:27:17;;;;;;;3.97;1.17;;;20.90;99.90;;;;;;5023673;28;20229;-64
2021/08/25 10:30:11;;;;;;;4.10;0.90;;;20.90;99.90;;;;;;5022750;28;20246;-64
2021/08/25 10:32:55;;;;;;;3.03;1.00;;;21.30;99.90;;;;;;5021611;28;20278;-64
2021/08/25 10:35:26;;;;;;;3.10;0.90;;;22.10;99.90;;;;;;5019711;28;20264;-64
2021/08/25 10:38:24;;;;;;;1.63;0.90;;;22.40;99.90;;;;;;5023298;28;20247;-64
2021/08/25 10:41:00;;;;;;;4.90;1.30;;;23.00;99.90;;;;;;5024119;28;20247;-64
2021/08/25 10:43:40;;;;;;;2.93;1.23;;;22.70;99.90;;;;;;5024288;28;20274;-64
2021/08/25 10:46:09;;;;;;;2.67;1.20;;;22.30;99.90;;;;;;5022339;28;20731;-64
2021/08/25 10:49:01;;;;;;;2.50;1.00;;;21.70;99.90;;;;;;5023954;28;20297;-64
2021/08/25 10:51:37;;;;;;;5.10;1.00;;;21.70;99.90;;;;;;5041686;28;20330;-64
2021/08/25 10:54:07;;;;;;;2.73;1.10;;;21.70;99.90;;;;;;5043512;28;20334;-64
2021/08/25 10:56:40;;;;;;;2.90;0.97;;;21.40;99.90;;;;;;5043672;28;20755;-64
2021/08/25 10:59:10;;;;;;;3.07;1.00;;;21.20;99.90;;;;;;5045313;28;20277;-64
2021/08/25 11:01:40;;;;;;;2.53;1.20;;;20.90;99.90;;;;;;5032280;28;20293;-64
2021/08/25 11:04:12;;;;;;;3.93;0.90;;;20.70;99.90;;;;;;5032371;28;20239;-64
2021/08/25 11:06:46;;;;;;;1.33;0.80;;;20.60;99.90;;;;;;5015419;28;20257;-64
2021/08/25 11:09:16;;;;;;;3.00;1.00;;;20.40;99.90;;;;;;5021391;28;20263;-64
2021/08/25 11:11:48;;;;;;;2.13;1.00;;;20.10;99.90;;;;;;5024193;28;20232;-64
2021/08/25 11:14:22;;;;;;;1.30;0.80;;;19.90;99.90;;;;;;5022612;28;20350;-64
2021/08/25 11:16:51;;;;;;;2.13;0.80;;;19.70;99.90;;;;;;5019899;28;20480;-64
2021/08/25 11:19:24;;;;;;;2.10;0.93;;;19.60;99.90;;;;;;5023259;28;20238;-64
2021/08/25 11:21:54;;;;;;;2.63;1.00;;;19.60;99.90;;;;;;5024161;28;20251;-64
2021/08/25 11:24:22;;;;;;;2.33;1.00;;;19.60;99.90;;;;;;5025981;28;20742;-64
2021/08/25 11:26:52;;;;;;;2.33;0.90;;;19.50;99.90;;;;;;5023313;28;20497;-64
2021/08/25 11:29:21;;;;;;;0.97;0.70;;;19.30;99.90;;;;;;5022839;28;20224;-64
2021/08/25 11:31:51;;;;;;;3.60;1.07;;;19.40;99.90;;;;;;5018475;28;20327;-64
2021/08/25 11:34:21;;;;;;;2.57;1.03;;;19.30;99.90;;;;;;5017987;28;20251;-64
2021/08/25 11:36:53;;;;;;;1.53;0.70;;;19.40;99.90;;;;;;5022090;28;20330;-64
2021/08/25 11:39:22;;;;;;;2.27;0.80;;;19.40;99.90;;;;;;5023098;28;20711;-64
2021/08/25 11:41:53;;;;;;;2.43;1.13;;;19.40;99.90;;;;;;5021591;28;20322;-64
2021/08/25 11:44:51;;;;;;;3.00;1.00;;;19.60;99.90;;;;;;5020570;28;20297;-64
2021/08/25 11:47:20;;;;;;;2.63;0.80;;;19.80;99.90;;;;;;4961467;28;20596;-64
2021/08/25 11:49:52;;;;;;;3.80;0.90;;;19.70;99.90;;;;;;5010720;28;20232;-64
2021/08/25 11:52:40;;;;;;;1.00;0.80;;;19.60;99.90;;;;;;5021233;28;20237;-64
2021/08/25 11:55:10;;;;;;;2.33;0.90;;;19.60;99.90;;;;;;5023355;28;20265;-64
2021/08/25 11:57:45;;;;;;;0.90;0.60;;;19.60;99.90;;;;;;5023241;28;20236;-64
2021/08/25 12:00:15;;;;;;;2.10;0.70;;;19.80;99.90;;;;;;5026628;28;20227;-64
2021/08/25 12:02:54;;;;;;;2.53;0.80;;;19.90;99.90;;;;;;5025679;28;21331;-64
2021/08/25 12:05:25;;;;;;;1.97;0.80;;;19.90;99.90;;;;;;5021062;28;20732;-64
2021/08/25 12:08:14;;;;;;;1.83;0.70;;;19.90;99.90;;;;;;5012792;28;20316;-63
2021/08/25 12:10:45;;;;;;;1.17;0.70;;;20.10;99.90;;;;;;5024747;28;20239;-64
2021/08/25 12:13:32;;;;;;;2.80;0.80;;;20.20;99.90;;;;;;5036878;28;20710;-64
2021/08/25 12:16:02;;;;;;;4.17;1.10;;;20.10;99.90;;;;;;5050076;28;20239;-64
2021/08/25 12:18:45;;;;;;;1.43;0.80;;;20.00;99.90;;;;;;5024504;28;20647;-64
2021/08/25 12:21:13;;;;;;;2.13;0.80;;;19.90;99.90;;;;;;5016750;28;20266;-63
2021/08/25 12:23:56;;;;;;;2.43;0.90;;;19.80;99.90;;;;;;5016586;28;20819;-63
2021/08/25 12:26:24;;;;;;;2.23;1.00;;;20.00;99.90;;;;;;5022982;28;20232;-63
2021/08/25 12:28:54;;;;;;;3.50;0.90;;;19.80;99.90;;;;;;5019561;28;20248;-63
2021/08/25 12:31:24;;;;;;;1.23;0.80;;;19.80;99.90;;;;;;5019046;28;20695;-63
2021/08/25 12:34:03;;;;;;;3.03;1.00;;;19.70;99.90;;;;;;5016345;28;20402;-63
2021/08/25 12:36:33;;;;;;;2.00;1.00;;;19.70;99.90;;;;;;5010398;28;20350;-63
2021/08/25 12:39:12;;;;;;;1.10;0.80;;;19.70;99.90;;;;;;5018048;28;20778;-63
2021/08/25 12:41:43;;;;;;;1.67;0.67;;;19.70;99.90;;;;;;5017011;28;20232;-63
2021/08/25 12:44:12;;;;;;;4.23;1.00;;;19.80;99.90;;;;;;5017864;28;20263;-64
2021/08/25 12:46:54;;;;;;;3.33;0.80;;;20.00;99.90;;;;;;5016481;28;20608;-63
2021/08/25 12:49:24;;;;;;;3.53;0.97;;;19.90;99.90;;;;;;5014508;28;20240;-63
2021/08/25 12:51:53;;;;;;;2.27;0.90;;;20.00;99.90;;;;;;5018133;28;20315;-63
2021/08/25 12:54:22;;;;;;;2.40;0.80;;;19.80;99.90;;;;;;5024095;28;20719;-63
2021/08/25 12:56:50;;;;;;;4.10;1.00;;;19.70;99.90;;;;;;5012386;28;20291;-64
2021/08/25 12:59:20;;;;;;;2.00;0.70;;;19.60;99.90;;;;;;5014537;28;20695;-64
2021/08/25 13:01:48;;;;;;;0.97;0.70;;;19.40;99.90;;;;;;5012255;28;20264;-64